createdAt,value
2022-08-03T00:00:30.890Z,0.00
2022-08-03T00:01:32.554Z,0.00
2022-08-03T00:02:30.562Z,0.00
2022-08-03T00:03:29.843Z,0.00
2022-08-03T00:04:34.110Z,0.00
2022-08-03T00:05:29.790Z,0.00
2022-08-03T00:06:33.772Z,0.00
2022-08-03T00:07:30.761Z,0.00
2022-08-03T00:08:29.778Z,0.00
2022-08-03T00:09:35.502Z,0.00
2022-08-03T00:10:30.795Z,0.00
2022-08-03T00:11:29.709Z,0.00
2022-08-03T00:12:32.565Z,0.00
2022-08-03T00:13:30.554Z,0.00
2022-08-03T00:14:29.677Z,0.00
2022-08-03T00:15:29.668Z,0.00
2022-08-03T00:16:29.688Z,0.00
2022-08-03T00:17:30.092Z,0.00
2022-08-03T00:18:31.561Z,0.00
2022-08-03T00:19:36.560Z,0.00
2022-08-03T00:20:50.636Z,0.00
2022-08-03T00:21:30.563Z,0.00
2022-08-03T00:22:32.551Z,0.00
2022-08-03T00:23:50.841Z,0.00
2022-08-03T00:24:30.582Z,0.00
2022-08-03T00:25:30.068Z,0.00
2022-08-03T00:26:29.573Z,0.00
2022-08-03T00:27:30.055Z,0.00
2022-08-03T00:28:30.054Z,0.00
2022-08-03T00:29:30.088Z,0.00
2022-08-03T00:30:30.892Z,0.00
2022-08-03T00:31:47.041Z,0.00
2022-08-03T00:32:30.513Z,0.00
2022-08-03T00:33:30.081Z,0.00
2022-08-03T00:34:57.865Z,0.00
2022-08-03T00:35:37.084Z,0.00
2022-08-03T00:36:31.066Z,0.00
2022-08-03T00:37:41.459Z,0.00
2022-08-03T00:38:37.056Z,0.00
2022-08-03T00:39:30.076Z,0.00
2022-08-03T00:40:30.054Z,0.00
2022-08-03T00:41:29.387Z,0.00
2022-08-03T00:42:30.063Z,0.00
2022-08-03T00:43:29.385Z,0.00
2022-08-03T00:44:30.056Z,0.00
2022-08-03T00:45:30.076Z,0.00
2022-08-03T00:46:29.326Z,0.00
2022-08-03T00:47:32.064Z,0.00
2022-08-03T00:48:33.603Z,0.00
2022-08-03T00:49:29.379Z,0.00
2022-08-03T00:50:30.093Z,0.00
2022-08-03T00:51:29.273Z,0.00
2022-08-03T00:52:32.056Z,0.00
2022-08-03T00:53:30.086Z,0.00
2022-08-03T00:54:30.065Z,0.00
2022-08-03T00:55:29.242Z,0.00
2022-08-03T00:56:30.108Z,0.00
2022-08-03T00:57:32.065Z,0.00
2022-08-03T00:58:36.065Z,0.00
2022-08-03T00:59:31.100Z,0.00
2022-08-03T01:00:30.057Z,0.00
2022-08-03T01:01:32.551Z,0.00
2022-08-03T01:02:30.058Z,0.00
2022-08-03T01:03:30.067Z,0.00
2022-08-03T01:04:30.067Z,0.00
2022-08-03T01:05:31.112Z,0.00
2022-08-03T01:06:32.065Z,0.00
2022-08-03T01:07:29.087Z,0.00
2022-08-03T01:08:30.065Z,0.00
2022-08-03T01:09:29.068Z,0.00
2022-08-03T01:10:31.683Z,0.00
2022-08-03T01:11:31.565Z,0.00
2022-08-03T01:12:35.563Z,0.00
2022-08-03T01:14:02.023Z,0.00
2022-08-03T01:14:30.021Z,0.00
2022-08-03T01:15:29.038Z,0.00
2022-08-03T01:16:36.678Z,0.00
2022-08-03T01:17:29.982Z,0.00
2022-08-03T01:18:35.559Z,0.00
2022-08-03T01:19:35.569Z,0.00
2022-08-03T01:20:31.571Z,0.00
2022-08-03T01:21:32.103Z,0.00
2022-08-03T01:22:31.575Z,0.00
2022-08-03T01:23:29.197Z,0.00
2022-08-03T01:24:31.577Z,0.00
2022-08-03T01:25:28.879Z,0.00
2022-08-03T01:26:30.602Z,0.00
2022-08-03T01:27:30.601Z,0.00
2022-08-03T01:28:31.574Z,0.00
2022-08-03T01:29:31.574Z,0.00
2022-08-03T01:30:35.577Z,0.00
2022-08-03T01:31:32.097Z,0.00
2022-08-03T01:32:58.669Z,0.00
2022-08-03T01:33:30.570Z,0.00
2022-08-03T01:34:31.578Z,0.00
2022-08-03T01:35:28.817Z,0.00
2022-08-03T01:36:31.573Z,0.00
2022-08-03T01:37:35.573Z,0.00
2022-08-03T01:38:31.580Z,0.00
2022-08-03T01:39:29.580Z,0.00
2022-08-03T01:40:31.587Z,0.00
2022-08-03T01:41:30.788Z,0.00
2022-08-03T01:42:31.575Z,0.00
2022-08-03T01:44:27.043Z,0.00
2022-08-03T01:44:32.580Z,0.00
2022-08-03T01:45:43.570Z,0.00
2022-08-03T01:46:31.573Z,0.00
2022-08-03T01:47:30.613Z,0.00
2022-08-03T01:48:29.567Z,0.00
2022-08-03T01:49:31.623Z,0.00
2022-08-03T01:50:35.595Z,0.00
2022-08-03T01:52:02.900Z,0.00
2022-08-03T01:52:32.075Z,0.00
2022-08-03T01:53:33.608Z,0.00
2022-08-03T01:54:28.567Z,0.00
2022-08-03T01:55:31.085Z,0.00
2022-08-03T01:56:49.534Z,0.00
2022-08-03T01:57:31.081Z,0.00
2022-08-03T01:58:31.073Z,0.00
2022-08-03T01:59:30.096Z,0.00
2022-08-03T02:00:31.080Z,0.00
2022-08-03T02:02:27.541Z,0.00
2022-08-03T02:02:32.857Z,0.00
2022-08-03T02:03:31.086Z,0.00
2022-08-03T02:04:31.085Z,0.00
2022-08-03T02:05:31.094Z,0.00
2022-08-03T02:06:59.926Z,0.00
2022-08-03T02:07:29.396Z,0.00
2022-08-03T02:08:29.991Z,0.00
2022-08-03T02:09:35.072Z,0.00
2022-08-03T02:10:35.252Z,0.00
2022-08-03T02:11:30.080Z,0.00
2022-08-03T02:12:28.356Z,0.00
2022-08-03T02:13:28.342Z,0.00
2022-08-03T02:14:31.070Z,0.00
2022-08-03T02:15:28.357Z,0.00
2022-08-03T02:16:31.076Z,0.00
2022-08-03T02:17:39.779Z,0.00
2022-08-03T02:18:29.267Z,0.00
2022-08-03T02:19:31.395Z,0.00
2022-08-03T02:20:30.168Z,0.00
2022-08-03T02:21:57.090Z,0.00
2022-08-03T02:22:32.084Z,0.00
2022-08-03T02:23:28.221Z,0.00
2022-08-03T02:24:28.209Z,0.00
2022-08-03T02:25:28.201Z,0.00
2022-08-03T02:26:30.099Z,0.00
2022-08-03T02:27:28.176Z,0.00
2022-08-03T02:28:31.082Z,0.00
2022-08-03T02:29:39.299Z,0.00
2022-08-03T02:30:30.073Z,0.00
2022-08-03T02:31:29.088Z,0.00
2022-08-03T02:32:31.083Z,0.00
2022-08-03T02:33:35.080Z,0.00
2022-08-03T02:34:31.077Z,0.00
2022-08-03T02:35:28.106Z,0.00
2022-08-03T02:36:28.071Z,0.00
2022-08-03T02:37:34.578Z,0.00
2022-08-03T02:38:28.104Z,0.00
2022-08-03T02:39:28.067Z,0.00
2022-08-03T02:40:28.034Z,0.00
2022-08-03T02:41:28.021Z,0.00
2022-08-03T02:42:28.021Z,0.00
2022-08-03T02:43:28.111Z,0.00
2022-08-03T02:44:35.584Z,0.00
2022-08-03T02:45:27.976Z,0.00
2022-08-03T02:46:27.964Z,0.00
2022-08-03T02:47:27.961Z,0.00
2022-08-03T02:48:27.948Z,0.00
2022-08-03T02:49:41.061Z,0.00
2022-08-03T02:50:35.603Z,0.00
2022-08-03T02:51:27.928Z,0.00
2022-08-03T02:52:27.900Z,0.00
2022-08-03T02:53:30.578Z,0.00
2022-08-03T02:54:27.931Z,0.00
2022-08-03T02:55:27.870Z,0.00
2022-08-03T02:56:27.852Z,0.00
2022-08-03T02:57:27.842Z,0.00
2022-08-03T02:58:27.845Z,0.00
2022-08-03T02:59:27.824Z,0.00
2022-08-03T03:00:28.728Z,0.00
2022-08-03T03:01:27.861Z,0.00
2022-08-03T03:02:27.799Z,0.00
2022-08-03T03:03:27.782Z,0.00
2022-08-03T03:04:28.586Z,0.00
2022-08-03T03:05:55.484Z,0.00
2022-08-03T03:06:29.586Z,0.00
2022-08-03T03:07:28.857Z,0.00
2022-08-03T03:08:28.697Z,0.00
2022-08-03T03:09:39.952Z,0.00
2022-08-03T03:10:30.615Z,0.00
2022-08-03T03:11:31.586Z,0.00
2022-08-03T03:12:27.683Z,0.00
2022-08-03T03:13:27.674Z,0.00
2022-08-03T03:14:34.585Z,0.00
2022-08-03T03:15:28.584Z,0.00
2022-08-03T03:16:27.634Z,0.00
2022-08-03T03:17:31.606Z,0.00
2022-08-03T03:18:27.621Z,4.00
2022-08-03T03:19:27.615Z,4.00
2022-08-03T03:20:30.747Z,4.00
2022-08-03T03:21:27.592Z,0.00
2022-08-03T03:22:27.582Z,4.00
2022-08-03T03:23:27.578Z,4.00
2022-08-03T03:24:27.556Z,0.00
2022-08-03T03:25:27.553Z,4.00
2022-08-03T03:26:27.536Z,4.00
2022-08-03T03:27:28.095Z,4.00
2022-08-03T03:28:27.526Z,8.00
2022-08-03T03:29:27.505Z,8.00
2022-08-03T03:30:27.499Z,8.00
2022-08-03T03:31:27.481Z,12.00
2022-08-03T03:32:27.620Z,12.00
2022-08-03T03:33:28.600Z,12.00
2022-08-03T03:34:34.097Z,16.00
2022-08-03T03:35:42.090Z,12.00
2022-08-03T03:36:27.430Z,16.00
2022-08-03T03:37:27.434Z,20.00
2022-08-03T03:38:34.098Z,20.00
2022-08-03T03:39:27.408Z,20.00
2022-08-03T03:40:27.392Z,28.00
2022-08-03T03:41:28.095Z,32.00
2022-08-03T03:42:29.087Z,36.00
2022-08-03T03:43:27.371Z,36.00
2022-08-03T03:44:27.617Z,40.00
2022-08-03T03:45:27.347Z,48.00
2022-08-03T03:46:28.088Z,56.00
2022-08-03T03:47:32.564Z,56.00
2022-08-03T03:48:27.296Z,64.00
2022-08-03T03:49:27.359Z,72.00
2022-08-03T03:50:27.287Z,76.00
2022-08-03T03:51:27.276Z,84.00
2022-08-03T03:52:27.252Z,92.00
2022-08-03T03:53:28.101Z,100.00
2022-08-03T03:54:29.440Z,104.00
2022-08-03T03:55:28.109Z,116.00
2022-08-03T03:56:27.229Z,124.00
2022-08-03T03:57:27.208Z,132.00
2022-08-03T03:58:27.280Z,144.00
2022-08-03T03:59:27.175Z,152.00
2022-08-03T04:00:27.177Z,160.00
2022-08-03T04:01:27.146Z,172.00
2022-08-03T04:02:28.099Z,184.00
2022-08-03T04:03:27.132Z,196.00
2022-08-03T04:04:27.141Z,208.00
2022-08-03T04:05:27.104Z,220.00
2022-08-03T04:06:27.126Z,232.00
2022-08-03T04:07:41.603Z,244.00
2022-08-03T04:08:27.074Z,260.00
2022-08-03T04:09:27.066Z,268.00
2022-08-03T04:10:27.063Z,284.00
2022-08-03T04:11:30.364Z,296.00
2022-08-03T04:12:33.600Z,308.00
2022-08-03T04:13:27.019Z,320.00
2022-08-03T04:14:27.014Z,336.00
2022-08-03T04:15:26.996Z,352.00
2022-08-03T04:16:27.594Z,364.00
2022-08-03T04:17:26.989Z,376.00
2022-08-03T04:18:26.970Z,396.00
2022-08-03T04:19:27.118Z,412.00
2022-08-03T04:20:26.956Z,432.00
2022-08-03T04:21:26.927Z,448.00
2022-08-03T04:22:26.919Z,464.00
2022-08-03T04:23:26.903Z,480.00
2022-08-03T04:24:27.135Z,492.00
2022-08-03T04:25:26.882Z,500.00
2022-08-03T04:26:26.877Z,512.00
2022-08-03T04:27:26.881Z,520.00
2022-08-03T04:28:31.262Z,528.00
2022-08-03T04:29:26.849Z,544.00
2022-08-03T04:30:41.599Z,564.00
2022-08-03T04:31:26.823Z,592.00
2022-08-03T04:32:26.832Z,612.00
2022-08-03T04:33:29.429Z,620.00
2022-08-03T04:34:26.782Z,636.00
2022-08-03T04:35:26.791Z,640.00
2022-08-03T04:36:27.758Z,656.00
2022-08-03T04:37:26.743Z,676.00
2022-08-03T04:38:27.610Z,688.00
2022-08-03T04:39:26.735Z,696.00
2022-08-03T04:40:29.746Z,708.00
2022-08-03T04:41:27.714Z,708.00
2022-08-03T04:42:26.694Z,708.00
2022-08-03T04:43:26.680Z,724.00
2022-08-03T04:44:28.422Z,724.00
2022-08-03T04:45:26.662Z,740.00
2022-08-03T04:46:27.605Z,784.00
2022-08-03T04:47:26.653Z,808.00
2022-08-03T04:48:26.631Z,824.00
2022-08-03T04:49:26.796Z,832.00
2022-08-03T04:50:26.607Z,848.00
2022-08-03T04:51:26.602Z,864.00
2022-08-03T04:52:26.595Z,876.00
2022-08-03T04:53:26.654Z,892.00
2022-08-03T04:54:26.574Z,900.00
2022-08-03T04:55:29.102Z,916.00
2022-08-03T04:56:33.114Z,924.00
2022-08-03T04:57:26.527Z,932.00
2022-08-03T04:58:26.525Z,940.00
2022-08-03T04:59:26.623Z,940.00
2022-08-03T05:00:27.116Z,932.00
2022-08-03T05:01:26.507Z,924.00
2022-08-03T05:02:26.524Z,904.00
2022-08-03T05:03:27.098Z,872.00
2022-08-03T05:04:26.459Z,916.00
2022-08-03T05:05:26.454Z,988.00
2022-08-03T05:06:27.432Z,1004.00
2022-08-03T05:07:26.418Z,1012.00
2022-08-03T05:08:28.225Z,1024.00
2022-08-03T05:09:45.991Z,1024.00
2022-08-03T05:10:27.391Z,1016.00
2022-08-03T05:11:26.377Z,1024.00
2022-08-03T05:12:29.434Z,968.00
2022-08-03T05:13:27.378Z,1052.00
2022-08-03T05:14:27.956Z,1124.00
2022-08-03T05:15:26.341Z,1136.00
2022-08-03T05:16:33.108Z,1152.00
2022-08-03T05:17:27.342Z,1160.00
2022-08-03T05:18:26.300Z,1168.00
2022-08-03T05:19:36.105Z,1180.00
2022-08-03T05:20:27.110Z,1176.00
2022-08-03T05:21:26.304Z,1172.00
2022-08-03T05:22:27.254Z,1172.00
2022-08-03T05:23:27.116Z,1172.00
2022-08-03T05:24:27.103Z,1172.00
2022-08-03T05:25:27.550Z,1184.00
2022-08-03T05:26:26.219Z,1196.00
2022-08-03T05:27:26.242Z,1200.00
2022-08-03T05:28:26.197Z,1212.00
2022-08-03T05:29:26.639Z,1224.00
2022-08-03T05:30:34.344Z,1256.00
2022-08-03T05:31:27.109Z,1268.00
2022-08-03T05:32:26.636Z,1280.00
2022-08-03T05:33:29.116Z,1292.00
2022-08-03T05:34:26.140Z,1304.00
2022-08-03T05:35:57.546Z,1320.00
2022-08-03T05:36:27.107Z,1348.00
2022-08-03T05:37:26.122Z,1364.00
2022-08-03T05:38:28.767Z,1392.00
2022-08-03T05:39:27.617Z,1428.00
2022-08-03T05:40:26.077Z,1476.00
2022-08-03T05:41:36.662Z,1524.00
2022-08-03T05:42:27.069Z,1564.00
2022-08-03T05:43:26.041Z,1596.00
2022-08-03T05:44:26.023Z,1624.00
2022-08-03T05:45:28.356Z,1644.00
2022-08-03T05:46:26.000Z,1664.00
2022-08-03T05:47:26.149Z,1676.00
2022-08-03T05:48:25.978Z,1664.00
2022-08-03T05:49:26.249Z,1636.00
2022-08-03T05:50:25.957Z,1608.00
2022-08-03T05:51:25.948Z,1576.00
2022-08-03T05:52:26.149Z,1540.00
2022-08-03T05:53:25.940Z,1512.00
2022-08-03T05:54:56.293Z,1496.00
2022-08-03T05:55:26.897Z,1480.00
2022-08-03T05:56:26.163Z,1400.00
2022-08-03T05:57:25.873Z,1496.00
2022-08-03T05:58:25.864Z,1500.00
2022-08-03T05:59:38.280Z,1504.00
2022-08-03T06:00:26.843Z,1508.00
2022-08-03T06:01:26.159Z,1508.00
2022-08-03T06:02:25.810Z,1508.00
2022-08-03T06:03:25.811Z,1516.00
2022-08-03T06:04:25.790Z,1528.00
2022-08-03T06:05:25.772Z,1536.00
2022-08-03T06:06:30.539Z,1532.00
2022-08-03T06:07:26.785Z,1536.00
2022-08-03T06:08:25.746Z,1540.00
2022-08-03T06:09:31.856Z,1536.00
2022-08-03T06:10:35.045Z,1528.00
2022-08-03T06:11:27.624Z,1504.00
2022-08-03T06:12:25.700Z,1464.00
2022-08-03T06:13:25.735Z,1424.00
2022-08-03T06:14:25.676Z,1324.00
2022-08-03T06:15:25.675Z,1428.00
2022-08-03T06:16:26.614Z,1416.00
2022-08-03T06:17:25.679Z,1436.00
2022-08-03T06:18:25.634Z,1456.00
2022-08-03T06:19:25.629Z,1472.00
2022-08-03T06:20:27.306Z,1448.00
2022-08-03T06:21:25.602Z,1468.00
2022-08-03T06:22:25.603Z,1508.00
2022-08-03T06:23:54.141Z,1516.00
2022-08-03T06:24:26.605Z,1484.00
2022-08-03T06:25:25.565Z,1520.00
2022-08-03T06:26:25.572Z,1520.00
2022-08-03T06:27:36.578Z,1508.00
2022-08-03T06:28:54.865Z,1492.00
2022-08-03T06:29:26.540Z,1452.00
2022-08-03T06:30:28.140Z,1352.00
2022-08-03T06:31:25.513Z,1340.00
2022-08-03T06:32:25.481Z,1396.00
2022-08-03T06:33:25.482Z,1444.00
2022-08-03T06:34:33.027Z,1504.00
2022-08-03T06:35:26.654Z,1520.00
2022-08-03T06:36:25.447Z,1540.00
2022-08-03T06:37:25.428Z,1572.00
2022-08-03T06:38:25.425Z,1644.00
2022-08-03T06:39:25.660Z,1684.00
2022-08-03T06:40:25.395Z,1704.00
2022-08-03T06:41:25.381Z,1716.00
2022-08-03T06:42:26.127Z,1712.00
2022-08-03T06:43:25.364Z,1696.00
2022-08-03T06:44:25.370Z,1688.00
2022-08-03T06:45:25.347Z,1664.00
2022-08-03T06:46:27.173Z,1644.00
2022-08-03T06:47:38.215Z,1612.00
2022-08-03T06:48:29.121Z,1588.00
2022-08-03T06:49:25.437Z,1572.00
2022-08-03T06:50:26.298Z,1560.00
2022-08-03T06:52:03.302Z,1560.00
2022-08-03T06:52:38.030Z,1528.00
2022-08-03T06:53:29.124Z,1544.00
2022-08-03T06:54:25.252Z,1548.00
2022-08-03T06:55:25.250Z,1548.00
2022-08-03T06:56:25.254Z,1552.00
2022-08-03T06:57:26.147Z,1556.00
2022-08-03T06:58:28.135Z,1560.00
2022-08-03T07:00:08.895Z,1564.00
2022-08-03T07:00:27.165Z,1572.00
2022-08-03T07:01:25.214Z,1580.00
2022-08-03T07:02:25.156Z,1552.00
2022-08-03T07:03:25.144Z,1592.00
2022-08-03T07:04:25.633Z,1600.00
2022-08-03T07:05:25.154Z,1604.00
2022-08-03T07:06:25.166Z,1608.00
2022-08-03T07:07:25.114Z,1460.00
2022-08-03T07:08:33.413Z,1524.00
2022-08-03T07:09:28.638Z,1448.00
2022-08-03T07:10:25.195Z,1520.00
2022-08-03T07:11:25.075Z,1532.00
2022-08-03T07:12:25.164Z,1532.00
2022-08-03T07:13:25.037Z,1536.00
2022-08-03T07:14:25.024Z,1596.00
2022-08-03T07:15:54.014Z,1580.00
2022-08-03T07:16:26.632Z,1584.00
2022-08-03T07:17:25.005Z,1628.00
2022-08-03T07:18:29.167Z,1576.00
2022-08-03T07:19:25.978Z,1608.00
2022-08-03T07:20:24.946Z,1648.00
2022-08-03T07:21:24.949Z,1700.00
2022-08-03T07:22:25.164Z,1668.00
2022-08-03T07:23:27.632Z,1688.00
2022-08-03T07:24:39.633Z,1696.00
2022-08-03T07:25:24.908Z,1720.00
2022-08-03T07:26:25.640Z,1680.00
2022-08-03T07:27:25.171Z,1584.00
2022-08-03T07:28:25.637Z,1548.00
2022-08-03T07:29:24.860Z,1636.00
2022-08-03T07:30:24.834Z,1676.00
2022-08-03T07:31:24.836Z,1612.00
2022-08-03T07:32:25.165Z,1568.00
2022-08-03T07:33:24.827Z,1540.00
2022-08-03T07:34:24.799Z,1700.00
2022-08-03T07:35:25.819Z,1704.00
2022-08-03T07:36:24.774Z,1732.00
2022-08-03T07:37:24.772Z,1752.00
2022-08-03T07:38:24.784Z,1768.00
2022-08-03T07:39:25.641Z,1780.00
2022-08-03T07:40:25.105Z,1788.00
2022-08-03T07:41:25.723Z,1796.00
2022-08-03T07:42:24.724Z,1796.00
2022-08-03T07:43:24.707Z,1792.00
2022-08-03T07:44:25.170Z,1792.00
2022-08-03T07:45:27.644Z,1800.00
2022-08-03T07:46:24.669Z,1808.00
2022-08-03T07:47:24.662Z,1804.00
2022-08-03T07:48:24.687Z,1808.00
2022-08-03T07:49:26.843Z,1804.00
2022-08-03T07:50:25.144Z,1808.00
2022-08-03T07:51:24.622Z,1792.00
2022-08-03T07:52:25.151Z,1800.00
2022-08-03T07:53:27.140Z,1800.00
2022-08-03T07:54:25.153Z,1828.00
2022-08-03T07:55:24.622Z,1856.00
2022-08-03T07:56:25.174Z,1856.00
2022-08-03T07:57:24.559Z,1884.00
2022-08-03T07:58:40.175Z,1880.00
2022-08-03T07:59:24.530Z,1964.00
2022-08-03T08:00:24.551Z,1868.00
2022-08-03T08:01:24.614Z,1916.00
2022-08-03T08:02:24.713Z,1896.00
2022-08-03T08:03:24.485Z,1752.00
2022-08-03T08:04:25.144Z,1720.00
2022-08-03T08:05:25.149Z,1784.00
2022-08-03T08:06:24.454Z,1728.00
2022-08-03T08:07:27.162Z,1800.00
2022-08-03T08:08:24.671Z,1820.00
2022-08-03T08:09:24.434Z,1776.00
2022-08-03T08:10:24.412Z,1816.00
2022-08-03T08:11:24.394Z,1972.00
2022-08-03T08:12:25.155Z,2044.00
2022-08-03T08:13:24.678Z,2100.00
2022-08-03T08:14:24.368Z,2116.00
2022-08-03T08:15:27.142Z,2092.00
2022-08-03T08:16:24.346Z,2100.00
2022-08-03T08:17:25.151Z,1984.00
2022-08-03T08:18:24.322Z,2100.00
2022-08-03T08:19:24.343Z,2084.00
2022-08-03T08:20:27.842Z,2116.00
2022-08-03T08:21:24.282Z,2148.00
2022-08-03T08:22:30.628Z,2220.00
2022-08-03T08:23:42.463Z,2184.00
2022-08-03T08:24:25.265Z,2212.00
2022-08-03T08:25:24.245Z,2112.00
2022-08-03T08:26:24.224Z,2328.00
2022-08-03T08:27:24.226Z,2416.00
2022-08-03T08:28:32.235Z,2496.00
2022-08-03T08:29:25.232Z,2668.00
2022-08-03T08:30:24.195Z,2736.00
2022-08-03T08:31:25.153Z,2756.00
2022-08-03T08:32:24.164Z,2776.00
2022-08-03T08:33:25.736Z,2640.00
2022-08-03T08:34:24.179Z,2676.00
2022-08-03T08:35:24.148Z,2780.00
2022-08-03T08:36:24.112Z,2800.00
2022-08-03T08:37:24.114Z,2728.00
2022-08-03T08:38:38.656Z,2788.00
2022-08-03T08:39:24.082Z,2840.00
2022-08-03T08:40:24.098Z,2888.00
2022-08-03T08:41:24.182Z,2832.00
2022-08-03T08:42:25.046Z,2740.00
2022-08-03T08:43:24.048Z,2708.00
2022-08-03T08:44:24.047Z,2400.00
2022-08-03T08:45:26.659Z,2516.00
2022-08-03T08:46:26.666Z,2480.00
2022-08-03T08:47:23.997Z,2400.00
2022-08-03T08:48:23.993Z,2400.00
2022-08-03T08:49:24.028Z,2460.00
2022-08-03T08:50:27.782Z,2428.00
2022-08-03T08:51:24.978Z,2440.00
2022-08-03T08:52:31.904Z,2452.00
2022-08-03T08:53:27.324Z,2508.00
2022-08-03T08:54:23.982Z,2584.00
2022-08-03T08:55:23.913Z,2712.00
2022-08-03T08:56:23.914Z,2812.00
2022-08-03T08:57:41.916Z,2916.00
2022-08-03T08:58:24.873Z,3012.00
2022-08-03T08:59:23.866Z,2996.00
2022-08-03T09:00:23.852Z,3092.00
2022-08-03T09:01:24.228Z,3080.00
2022-08-03T09:02:23.848Z,3056.00
2022-08-03T09:03:29.884Z,3008.00
2022-08-03T09:04:24.817Z,2952.00
2022-08-03T09:05:41.417Z,2948.00
2022-08-03T09:06:39.653Z,2892.00
2022-08-03T09:07:23.800Z,2924.00
2022-08-03T09:08:23.769Z,2924.00
2022-08-03T09:09:28.515Z,2984.00
2022-08-03T09:10:24.742Z,2892.00
2022-08-03T09:11:51.413Z,2920.00
2022-08-03T09:12:42.198Z,2956.00
2022-08-03T09:13:24.705Z,2964.00
2022-08-03T09:14:35.290Z,2948.00
2022-08-03T09:15:31.662Z,2936.00
2022-08-03T09:16:23.681Z,2952.00
2022-08-03T09:17:23.698Z,2928.00
2022-08-03T09:18:23.668Z,2872.00
2022-08-03T09:19:24.647Z,2820.00
2022-08-03T09:20:23.642Z,2792.00
2022-08-03T09:21:31.819Z,2752.00
2022-08-03T09:22:24.644Z,2656.00
2022-08-03T09:24:00.578Z,2680.00
2022-08-03T09:24:40.790Z,2836.00
2022-08-03T09:25:25.235Z,2884.00
2022-08-03T09:26:23.602Z,2728.00
2022-08-03T09:27:23.563Z,3156.00
2022-08-03T09:28:52.833Z,3396.00
2022-08-03T09:29:24.708Z,3080.00
2022-08-03T09:30:34.715Z,3864.00
2022-08-03T09:31:27.160Z,3852.00
2022-08-03T09:32:23.504Z,4056.00
2022-08-03T09:33:26.164Z,4552.00
2022-08-03T09:34:24.499Z,4824.00
2022-08-03T09:35:33.048Z,4804.00
2022-08-03T09:36:25.159Z,4844.00
2022-08-03T09:38:08.594Z,5012.00
2022-08-03T09:38:27.173Z,5116.00
2022-08-03T09:39:40.424Z,4940.00
2022-08-03T09:40:24.420Z,4880.00
2022-08-03T09:41:30.176Z,4952.00
2022-08-03T09:42:23.650Z,5352.00
2022-08-03T09:43:23.393Z,5640.00
2022-08-03T09:44:24.886Z,5764.00
2022-08-03T09:45:44.708Z,5776.00
2022-08-03T09:46:23.366Z,6348.00
2022-08-03T09:47:28.007Z,6456.00
2022-08-03T09:48:23.346Z,6564.00
2022-08-03T09:49:23.384Z,6572.00
2022-08-03T09:50:23.335Z,6584.00
2022-08-03T09:52:28.834Z,6552.00
2022-08-03T09:52:32.330Z,6544.00
2022-08-03T09:53:24.278Z,6700.00
2022-08-03T09:54:26.179Z,6656.00
2022-08-03T09:55:23.515Z,6436.00
2022-08-03T09:56:35.567Z,6640.00
2022-08-03T09:57:24.228Z,6544.00
2022-08-03T09:58:26.175Z,6448.00
2022-08-03T09:59:23.213Z,6540.00
2022-08-03T10:00:23.221Z,6428.00
2022-08-03T10:01:26.208Z,6356.00
2022-08-03T10:02:23.196Z,6160.00
2022-08-03T10:03:23.173Z,6048.00
2022-08-03T10:04:23.671Z,5976.00
2022-08-03T10:05:23.679Z,5856.00
2022-08-03T10:06:23.177Z,5744.00
2022-08-03T10:07:26.681Z,5472.00
2022-08-03T10:08:23.134Z,5324.00
2022-08-03T10:09:44.108Z,5308.00
2022-08-03T10:10:30.371Z,5476.00
2022-08-03T10:11:24.198Z,5460.00
2022-08-03T10:12:23.076Z,5632.00
2022-08-03T10:13:23.679Z,5620.00
2022-08-03T10:14:23.058Z,5576.00
2022-08-03T10:16:21.661Z,5588.00
2022-08-03T10:16:25.523Z,5516.00
2022-08-03T10:17:23.021Z,5472.00
2022-08-03T10:18:23.025Z,5416.00
2022-08-03T10:19:22.988Z,4960.00
2022-08-03T10:20:23.670Z,4980.00
2022-08-03T10:21:22.975Z,5120.00
2022-08-03T10:22:23.220Z,5112.00
2022-08-03T10:23:23.687Z,5100.00
2022-08-03T10:24:22.971Z,5000.00
2022-08-03T10:25:22.942Z,4404.00
2022-08-03T10:26:23.918Z,4476.00
2022-08-03T10:27:22.894Z,4912.00
2022-08-03T10:28:22.912Z,4888.00
2022-08-03T10:29:23.693Z,4824.00
2022-08-03T10:30:26.139Z,4780.00
2022-08-03T10:31:22.862Z,4704.00
2022-08-03T10:32:22.849Z,4620.00
2022-08-03T10:33:49.737Z,4248.00
2022-08-03T10:34:23.858Z,4176.00
2022-08-03T10:35:22.840Z,4164.00
2022-08-03T10:36:22.812Z,4064.00
2022-08-03T10:37:22.803Z,4212.00
2022-08-03T10:38:22.798Z,4224.00
2022-08-03T10:39:22.756Z,3792.00
2022-08-03T10:40:33.479Z,3924.00
2022-08-03T10:41:23.752Z,3996.00
2022-08-03T10:42:22.763Z,3928.00
2022-08-03T10:43:23.679Z,3872.00
2022-08-03T10:44:23.792Z,3916.00
2022-08-03T10:45:22.714Z,4092.00
2022-08-03T10:46:23.727Z,4304.00
2022-08-03T10:47:23.699Z,4512.00
2022-08-03T10:48:22.690Z,4684.00
2022-08-03T10:49:33.793Z,4700.00
2022-08-03T10:50:23.659Z,4572.00
2022-08-03T10:51:22.690Z,4744.00
2022-08-03T10:52:32.788Z,4584.00
2022-08-03T10:53:30.182Z,4360.00
2022-08-03T10:54:22.622Z,3936.00
2022-08-03T10:55:22.749Z,3500.00
2022-08-03T10:56:46.672Z,3372.00
2022-08-03T10:57:23.735Z,3624.00
2022-08-03T10:58:30.565Z,3400.00
2022-08-03T10:59:27.708Z,3316.00
2022-08-03T11:00:22.683Z,3248.00
2022-08-03T11:01:22.740Z,3204.00
2022-08-03T11:02:22.558Z,3176.00
2022-08-03T11:03:22.548Z,3104.00
2022-08-03T11:04:23.196Z,3148.00
2022-08-03T11:05:25.199Z,3144.00
2022-08-03T11:06:22.489Z,3112.00
2022-08-03T11:07:23.169Z,3184.00
2022-08-03T11:08:23.543Z,2976.00
2022-08-03T11:09:23.183Z,3228.00
2022-08-03T11:10:22.465Z,3192.00
2022-08-03T11:11:22.434Z,3196.00
2022-08-03T11:12:28.955Z,3164.00
2022-08-03T11:13:23.425Z,3104.00
2022-08-03T11:14:22.479Z,3120.00
2022-08-03T11:15:23.447Z,3156.00
2022-08-03T11:16:22.528Z,3132.00
2022-08-03T11:17:22.377Z,3080.00
2022-08-03T11:18:22.725Z,3268.00
2022-08-03T11:19:22.372Z,3332.00
2022-08-03T11:20:25.194Z,3408.00
2022-08-03T11:21:22.335Z,3476.00
2022-08-03T11:22:22.317Z,3540.00
2022-08-03T11:24:02.094Z,3608.00
2022-08-03T11:24:23.370Z,3660.00
2022-08-03T11:25:53.989Z,3708.00
2022-08-03T11:26:24.193Z,3560.00
2022-08-03T11:27:22.735Z,3408.00
2022-08-03T11:28:22.733Z,3432.00
2022-08-03T11:29:22.235Z,3332.00
2022-08-03T11:30:22.244Z,3468.00
2022-08-03T11:31:47.939Z,3524.00
2022-08-03T11:32:23.211Z,3516.00
2022-08-03T11:33:22.224Z,3528.00
2022-08-03T11:34:22.192Z,3548.00
2022-08-03T11:35:23.241Z,3604.00
2022-08-03T11:36:32.519Z,3708.00
2022-08-03T11:37:24.095Z,3840.00
2022-08-03T11:38:23.731Z,3980.00
2022-08-03T11:39:22.234Z,4060.00
2022-08-03T11:40:36.701Z,4100.00
2022-08-03T11:41:22.225Z,4100.00
2022-08-03T11:42:22.114Z,4084.00
2022-08-03T11:43:22.095Z,4072.00
2022-08-03T11:44:24.704Z,4044.00
2022-08-03T11:45:22.226Z,4052.00
2022-08-03T11:46:28.664Z,4072.00
2022-08-03T11:47:23.248Z,4048.00
2022-08-03T11:48:22.719Z,4144.00
2022-08-03T11:49:22.797Z,4228.00
2022-08-03T11:50:22.250Z,4284.00
2022-08-03T11:51:22.236Z,4368.00
2022-08-03T11:52:27.167Z,4532.00
2022-08-03T11:53:22.988Z,4664.00
2022-08-03T11:54:21.979Z,4796.00
2022-08-03T11:55:29.005Z,4944.00
2022-08-03T11:56:23.251Z,5044.00
2022-08-03T11:57:21.948Z,5060.00
2022-08-03T11:59:01.582Z,5128.00
2022-08-03T11:59:23.013Z,5180.00
2022-08-03T12:00:21.918Z,5268.00
2022-08-03T12:01:23.213Z,5368.00
2022-08-03T12:02:22.949Z,5432.00
2022-08-03T12:03:22.776Z,5228.00
2022-08-03T12:04:22.243Z,5292.00
2022-08-03T12:05:28.704Z,3460.00
2022-08-03T12:06:36.718Z,3124.00
2022-08-03T12:07:25.885Z,3396.00
2022-08-03T12:08:22.858Z,4428.00
2022-08-03T12:09:21.824Z,3212.00
2022-08-03T12:10:22.703Z,3052.00
2022-08-03T12:11:21.829Z,2812.00
2022-08-03T12:12:21.791Z,3040.00
2022-08-03T12:14:35.820Z,4236.00
2022-08-03T12:14:48.981Z,5640.00
2022-08-03T12:15:22.761Z,5952.00
2022-08-03T12:16:21.750Z,6128.00
2022-08-03T12:17:24.711Z,5124.00
2022-08-03T12:18:22.243Z,5668.00
2022-08-03T12:19:21.739Z,5628.00
2022-08-03T12:20:34.899Z,6192.00
2022-08-03T12:21:22.694Z,6112.00
2022-08-03T12:22:21.686Z,5992.00
2022-08-03T12:23:21.677Z,5908.00
2022-08-03T12:24:21.737Z,6404.00
2022-08-03T12:25:38.632Z,6428.00
2022-08-03T12:26:23.220Z,6572.00
2022-08-03T12:27:22.214Z,5724.00
2022-08-03T12:28:37.459Z,5604.00